Time;durP1;ratioP1;P1;durP2;ratioP2;P2;SDS_P1;SDS_P2;PMS_P1;PMS_P2;Temp;Humidity;BMP_temperature;BMP_pressure;BME280_temperature;BME280_humidity;BME280_pressure;Samples;Min_cycle;Max_cycle;Signal;HPM_P1;HPM_P2
2022/01/06 00:02:47;;;;;;;10.83;3.80;;;;;;;7.47;51.72;97397.38;8458386;28;20248;-76
2022/01/06 00:06:50;;;;;;;12.60;3.83;;;;;;;7.37;51.90;97402.06;8470171;28;20295;-75
2022/01/06 00:10:55;;;;;;;8.53;3.27;;;;;;;7.74;51.30;97405.69;8469960;28;20399;-74
2022/01/06 00:15:04;;;;;;;11.47;3.80;;;;;;;7.73;50.97;97412.59;8469674;28;20225;-74
2022/01/06 00:23:32;;;;;;;9.17;3.10;;;;;;;7.44;51.50;97406.03;8469421;28;20225;-74
2022/01/06 00:27:37;;;;;;;7.13;3.00;;;;;;;7.55;51.53;97416.75;8499158;27;20225;-74
2022/01/06 00:31:40;;;;;;;9.43;3.10;;;;;;;7.56;51.79;97423.59;8451961;28;20579;-74
2022/01/06 00:35:43;;;;;;;9.07;3.23;;;;;;;7.78;51.42;97420.94;8453795;28;20292;-74
2022/01/06 00:39:46;;;;;;;11.53;3.67;;;;;;;7.76;51.00;97425.34;8485998;28;20233;-74
2022/01/06 00:43:50;;;;;;;14.13;3.60;;;;;;;7.46;52.38;97430.00;8485834;28;20245;-74
2022/01/06 00:47:53;;;;;;;10.90;2.90;;;;;;;7.48;52.34;97422.22;8485737;28;20271;-75
2022/01/06 00:51:56;;;;;;;10.20;3.43;;;;;;;7.49;52.50;97434.22;8485991;28;20233;-74
2022/01/06 00:55:59;;;;;;;12.67;3.60;;;;;;;7.45;52.49;97430.91;8485494;28;20228;-76
2022/01/06 01:00:04;;;;;;;12.35;4.40;;;;;;;7.63;52.29;97419.88;8456309;28;20607;-76
2022/01/06 01:04:08;;;;;;;9.40;3.77;;;;;;;7.29;52.86;97422.13;8467055;28;20230;-76
2022/01/06 01:08:11;;;;;;;12.87;4.30;;;;;;;7.39;52.75;97436.31;8451862;28;20226;-76
2022/01/06 01:12:14;;;;;;;10.37;3.67;;;;;;;7.52;52.89;97440.09;8451515;28;20233;-76
2022/01/06 01:16:23;;;;;;;8.13;3.77;;;;;;;7.52;53.22;97442.66;8451129;28;20249;-76
2022/01/06 01:20:26;;;;;;;13.60;4.03;;;;;;;7.68;53.26;97455.75;8451058;28;20241;-76
2022/01/06 01:24:29;;;;;;;8.40;3.67;;;;;;;7.56;53.70;97445.97;8451134;28;20256;-76
2022/01/06 01:28:42;;;;;;;9.97;3.77;;;;;;;7.61;53.51;97447.41;8450626;28;20300;-77
2022/01/06 01:32:50;;;;;;;7.40;3.57;;;;;;;7.60;53.16;97450.91;8450542;28;20234;-76
2022/01/06 01:36:55;;;;;;;13.47;4.00;;;;;;;7.66;53.25;97447.25;8450663;28;20517;-76
2022/01/06 01:40:58;;;;;;;8.70;3.60;;;;;;;7.57;53.46;97450.19;8450332;28;20545;-76
2022/01/06 01:45:02;;;;;;;11.43;3.80;;;;;;;7.62;53.21;97462.00;8451698;28;20567;-76
2022/01/06 01:49:30;;;;;;;12.27;3.60;;;;;;;7.70;52.79;97471.16;8452374;28;20362;-76
2022/01/06 01:53:33;;;;;;;10.90;3.90;;;;;;;7.61;53.51;97483.50;8450670;28;20233;-76
2022/01/06 01:57:36;;;;;;;8.90;3.87;;;;;;;7.76;53.13;97488.94;8449784;28;20234;-76
2022/01/06 02:01:39;;;;;;;9.97;3.77;;;;;;;7.74;53.17;97491.59;8449627;28;20233;-76
2022/01/06 02:05:54;;;;;;;11.80;4.10;;;;;;;7.72;53.64;97495.13;8449491;28;20249;-76
2022/01/06 02:09:57;;;;;;;10.37;3.83;;;;;;;7.36;54.99;97487.97;8448388;28;20234;-76
2022/01/06 02:14:04;;;;;;;7.37;3.47;;;;;;;7.41;55.83;97492.03;8449423;28;20416;-76
2022/01/06 02:18:06;;;;;;;10.23;3.40;;;;;;;7.50;55.97;97492.56;8449381;28;20222;-76
2022/01/06 02:22:11;;;;;;;7.37;3.30;;;;;;;7.36;56.19;97500.84;8449248;28;20264;-76
2022/01/06 02:26:14;;;;;;;8.67;3.50;;;;;;;7.39;56.06;97501.56;8449387;28;20225;-76
2022/01/06 02:30:17;;;;;;;9.20;3.50;;;;;;;7.44;55.56;97498.78;8449166;28;20241;-76
2022/01/06 02:34:20;;;;;;;9.40;3.80;;;;;;;7.11;56.79;97496.63;8449189;28;20226;-76
2022/01/06 02:38:24;;;;;;;7.70;3.60;;;;;;;7.48;55.92;97489.22;8448844;28;20230;-76
2022/01/06 02:42:29;;;;;;;8.43;3.40;;;;;;;7.45;55.88;97495.34;8448993;28;20436;-76
2022/01/06 02:46:33;;;;;;;8.53;3.33;;;;;;;7.17;56.68;97501.53;8447888;28;20229;-77
2022/01/06 02:50:38;;;;;;;6.63;3.13;;;;;;;7.36;55.61;97496.50;8448520;28;20234;-76
2022/01/06 02:54:42;;;;;;;7.27;3.17;;;;;;;7.27;56.04;97501.19;8448436;28;20238;-76
2022/01/06 02:58:47;;;;;;;7.13;3.30;;;;;;;7.21;56.16;97507.41;8448201;28;20230;-76
2022/01/06 03:02:50;;;;;;;8.93;3.50;;;;;;;7.04;56.74;97526.06;8432939;28;20518;-76
2022/01/06 03:06:53;;;;;;;9.50;3.37;;;;;;;7.30;55.78;97526.84;8414540;28;20231;-76
2022/01/06 03:10:57;;;;;;;7.43;3.40;;;;;;;7.21;56.46;97530.59;8414031;28;20238;-76
2022/01/06 03:15:00;;;;;;;8.70;3.30;;;;;;;7.30;55.91;97525.09;8414215;28;20242;-76
2022/01/06 03:19:03;;;;;;;9.10;3.20;;;;;;;7.23;56.19;97533.94;8414092;28;20533;-76
2022/01/06 03:23:06;;;;;;;5.97;3.10;;;;;;;7.29;55.68;97535.44;8413708;28;20546;-76
2022/01/06 03:27:11;;;;;;;8.63;3.53;;;;;;;7.14;56.13;97536.88;8413951;28;20230;-76
2022/01/06 03:31:13;;;;;;;8.50;3.53;;;;;;;7.31;55.92;97546.53;8414079;28;20241;-76
2022/01/06 03:35:20;;;;;;;8.63;3.03;;;;;;;7.57;54.86;97546.38;8413941;28;20271;-76
2022/01/06 03:39:23;;;;;;;8.73;3.70;;;;;;;7.47;55.65;97549.38;8413757;28;20234;-76
2022/01/06 03:43:27;;;;;;;6.13;2.97;;;;;;;7.54;54.95;97541.34;8413610;28;20234;-76
2022/01/06 03:47:31;;;;;;;9.57;3.30;;;;;;;7.47;55.84;97550.22;8413618;28;20237;-76
2022/01/06 03:51:34;;;;;;;6.57;3.17;;;;;;;7.39;55.68;97539.38;8413064;28;20530;-76
2022/01/06 03:55:39;;;;;;;8.00;3.70;;;;;;;7.46;55.82;97552.84;8413400;28;20230;-76
2022/01/06 03:59:44;;;;;;;8.30;3.17;;;;;;;7.56;55.54;97559.34;8413456;28;20231;-76
2022/01/06 04:03:47;;;;;;;7.80;3.10;;;;;;;7.08;56.41;97555.94;8436463;28;20234;-76
2022/01/06 04:07:50;;;;;;;8.13;3.30;;;;;;;7.04;56.57;97564.69;8447129;28;20575;-76
2022/01/06 04:11:53;;;;;;;8.47;3.23;;;;;;;7.09;56.20;97567.94;8446771;28;20233;-76
2022/01/06 04:15:59;;;;;;;7.70;3.20;;;;;;;6.99;56.81;97580.31;8446831;28;20230;-76
2022/01/06 04:20:02;;;;;;;6.77;2.73;;;;;;;7.10;56.13;97582.50;8446734;28;20283;-76
2022/01/06 04:24:05;;;;;;;7.33;3.20;;;;;;;7.22;56.42;97589.78;8446630;28;20395;-76
2022/01/06 04:28:08;;;;;;;4.27;2.43;;;;;;;7.25;56.28;97593.97;8446666;28;20226;-76
2022/01/06 04:32:13;;;;;;;7.67;3.03;;;;;;;6.91;56.95;97600.34;8446669;28;20238;-76
2022/01/06 04:36:16;;;;;;;5.07;2.30;;;;;;;6.88;56.92;97589.31;8453014;28;20261;-76
2022/01/06 04:40:18;;;;;;;5.60;2.85;;;;;;;6.89;56.84;97594.41;8452276;28;20403;-76
2022/01/06 04:44:22;;;;;;;5.63;2.43;;;;;;;7.19;55.67;97604.50;8452267;28;20233;-76
2022/01/06 04:48:26;;;;;;;6.43;2.40;;;;;;;7.15;55.48;97613.22;8451862;28;20230;-76
2022/01/06 04:52:29;;;;;;;3.20;1.80;;;;;;;7.08;55.38;97604.88;8452072;28;20230;-76
2022/01/06 04:56:36;;;;;;;5.10;2.13;;;;;;;7.00;55.47;97612.03;8451117;28;20213;-77
2022/01/06 05:00:39;;;;;;;6.17;2.00;;;;;;;7.11;55.04;97614.25;8451545;28;20237;-77
2022/01/06 05:04:43;;;;;;;7.40;2.37;;;;;;;7.16;54.92;97620.91;8451498;28;20241;-76
2022/01/06 05:08:46;;;;;;;6.20;2.20;;;;;;;7.10;54.43;97628.00;8451759;28;20240;-76
2022/01/06 05:12:49;;;;;;;6.00;1.70;;;;;;;7.26;53.99;97638.63;8451662;28;20244;-76
2022/01/06 05:16:52;;;;;;;4.80;2.10;;;;;;;7.07;53.86;97649.56;8451170;28;20234;-76
2022/01/06 05:20:57;;;;;;;4.00;1.80;;;;;;;7.04;53.92;97652.22;8451064;28;20507;-76
2022/01/06 05:24:59;;;;;;;4.93;1.60;;;;;;;7.21;53.67;97644.75;8451134;28;20540;-77
2022/01/06 05:29:02;;;;;;;8.30;2.10;;;;;;;7.09;53.56;97655.50;8450897;28;20230;-77
2022/01/06 05:33:05;;;;;;;6.33;1.77;;;;;;;6.82;54.16;97654.72;8450737;28;20236;-76
2022/01/06 05:37:09;;;;;;;4.93;1.50;;;;;;;6.82;54.60;97658.13;8450920;28;20226;-76
2022/01/06 05:41:12;;;;;;;5.97;1.77;;;;;;;6.67;54.85;97668.94;8451138;28;20420;-76
2022/01/06 05:45:16;;;;;;;3.97;1.63;;;;;;;6.76;55.08;97660.91;8450149;28;20233;-76
2022/01/06 05:49:19;;;;;;;5.90;2.17;;;;;;;6.67;55.33;97665.53;8450063;28;20222;-76
2022/01/06 05:53:23;;;;;;;4.67;2.53;;;;;;;6.41;56.52;97669.78;8449982;28;20229;-76
2022/01/06 05:57:28;;;;;;;5.00;2.30;;;;;;;6.88;55.19;97680.25;8450416;28;20398;-76
2022/01/06 06:01:31;;;;;;;8.33;2.40;;;;;;;6.52;56.58;97675.44;8449641;28;20230;-76
2022/01/06 06:05:34;;;;;;;7.50;2.60;;;;;;;6.58;56.70;97682.13;8482775;28;20533;-77
2022/01/06 06:09:39;;;;;;;5.97;2.77;;;;;;;6.64;56.31;97684.47;8453510;28;20233;-77
2022/01/06 06:13:42;;;;;;;6.63;3.07;;;;;;;6.58;56.78;97685.50;8449847;28;20492;-76
2022/01/06 06:17:45;;;;;;;7.43;3.33;;;;;;;6.34;57.76;97689.75;8449014;28;20234;-76
2022/01/06 06:21:48;;;;;;;7.27;3.60;;;;;;;6.62;57.18;97696.56;8448892;28;20244;-76
2022/01/06 06:25:52;;;;;;;9.43;4.60;;;;;;;6.83;56.78;97698.44;8449169;28;20238;-76
2022/01/06 06:29:55;;;;;;;10.40;4.50;;;;;;;6.60;57.17;97701.75;8448808;28;20428;-76
2022/01/06 06:33:57;;;;;;;10.57;3.73;;;;;;;6.72;56.93;97702.22;8448684;28;20230;-76
2022/01/06 06:38:00;;;;;;;7.10;3.50;;;;;;;6.57;57.66;97713.91;8443265;28;20226;-77
2022/01/06 06:42:05;;;;;;;13.20;4.60;;;;;;;6.68;57.38;97705.81;8414802;28;20250;-76
2022/01/06 06:46:08;;;;;;;8.70;4.43;;;;;;;6.62;57.11;97723.13;8424279;28;20420;-77
2022/01/06 06:50:15;;;;;;;9.40;4.17;;;;;;;6.77;57.06;97729.50;8439211;28;20230;-77
2022/01/06 06:54:18;;;;;;;11.73;4.63;;;;;;;6.61;57.33;97736.06;8447969;28;20226;-76
2022/01/06 06:58:23;;;;;;;10.73;4.20;;;;;;;6.85;56.57;97749.84;8448282;28;20222;-77
2022/01/06 07:02:26;;;;;;;9.43;4.20;;;;;;;6.78;57.30;97756.09;8447991;28;20230;-77
2022/01/06 07:06:29;;;;;;;8.77;4.27;;;;;;;7.05;56.12;97765.47;8448036;28;20237;-77
2022/01/06 07:10:32;;;;;;;10.73;4.30;;;;;;;7.15;55.72;97776.31;8447203;28;20500;-78
2022/01/06 07:14:37;;;;;;;10.60;5.20;;;;;;;7.00;56.45;97779.41;8448047;28;20371;-77
2022/01/06 07:18:40;;;;;;;8.33;4.30;;;;;;;7.19;55.83;97787.34;8447889;28;20237;-77
2022/01/06 07:22:43;;;;;;;12.33;4.37;;;;;;;7.11;56.19;97797.91;8447583;28;20234;-77
2022/01/06 07:26:50;;;;;;;9.33;4.33;;;;;;;7.11;56.26;97799.66;8447583;28;20237;-77
2022/01/06 07:30:57;;;;;;;12.40;4.43;;;;;;;6.98;55.90;97804.34;8447711;28;20234;-77
2022/01/06 07:35:00;;;;;;;9.30;4.17;;;;;;;7.22;56.08;97808.69;8447874;28;20241;-77
2022/01/06 07:39:03;;;;;;;9.13;4.03;;;;;;;7.04;55.84;97815.31;8447469;28;20226;-77
2022/01/06 07:43:06;;;;;;;12.57;4.73;;;;;;;7.27;55.62;97825.72;8447320;28;20340;-77
2022/01/06 07:47:13;;;;;;;9.97;4.30;;;;;;;7.07;55.87;97819.50;8447046;28;20226;-77
2022/01/06 07:51:16;;;;;;;11.17;4.27;;;;;;;6.98;56.52;97822.38;8447015;28;20226;-77
2022/01/06 07:55:19;;;;;;;9.47;4.33;;;;;;;7.09;56.15;97838.31;8446870;28;20229;-77
2022/01/06 07:59:22;;;;;;;11.70;4.87;;;;;;;7.20;56.44;97830.25;8446816;28;20232;-77
2022/01/06 08:03:27;;;;;;;10.60;5.57;;;;;;;6.87;56.91;97843.31;8445994;28;20226;-77
2022/01/06 08:07:30;;;;;;;13.53;5.03;;;;;;;7.34;55.54;97845.25;8448071;28;20556;-77
2022/01/06 08:11:33;;;;;;;11.50;5.07;;;;;;;7.17;56.23;97859.50;8442039;28;20214;-78
2022/01/06 08:15:36;;;;;;;19.73;9.27;;;;;;;7.26;55.85;97871.25;8450120;28;20233;-77
2022/01/06 08:19:41;;;;;;;13.70;5.93;;;;;;;7.27;56.06;97874.69;8452650;28;20229;-77
2022/01/06 08:23:44;;;;;;;11.53;5.27;;;;;;;7.24;56.04;97867.91;8449827;28;20238;-77
2022/01/06 08:27:51;;;;;;;11.03;4.80;;;;;;;7.66;70.34;97885.41;8452281;28;20254;-76
2022/01/06 08:31:53;;;;;;;11.73;5.40;;;;;;;7.50;55.88;97879.06;8451905;28;20419;-76
2022/01/06 08:35:58;;;;;;;11.93;5.83;;;;;;;7.60;55.36;97883.88;8452107;28;20232;-76
2022/01/06 08:40:02;;;;;;;11.90;5.47;;;;;;;7.39;56.18;97898.31;8451934;28;20233;-77
2022/01/06 08:44:05;;;;;;;10.50;4.63;;;;;;;7.56;55.35;97890.03;8449122;28;20230;-77
2022/01/06 08:48:08;;;;;;;11.93;5.00;;;;;;;7.70;55.21;97912.75;8451981;28;20226;-77
2022/01/06 08:52:13;;;;;;;12.87;4.60;;;;;;;7.61;55.41;97919.03;8452470;28;20230;-77
2022/01/06 08:56:16;;;;;;;13.73;5.40;;;;;;;7.51;55.32;97925.41;8452587;28;20226;-77
2022/01/06 09:00:19;;;;;;;10.20;4.00;;;;;;;7.53;55.94;97922.78;8451984;28;20410;-77
2022/01/06 09:04:22;;;;;;;12.43;4.73;;;;;;;7.56;55.26;97931.25;8451398;28;20230;-77
2022/01/06 09:08:26;;;;;;;13.47;4.47;;;;;;;7.30;55.81;97929.53;8451903;28;20234;-77
2022/01/06 09:12:29;;;;;;;10.30;4.57;;;;;;;7.42;55.60;97930.84;8451923;28;20233;-77
2022/01/06 09:16:32;;;;;;;15.33;6.13;;;;;;;6.89;56.71;97947.06;8451059;28;20226;-78
2022/01/06 09:20:35;;;;;;;11.97;5.00;;;;;;;7.09;56.79;97949.06;8450378;28;20242;-78
2022/01/06 09:24:40;;;;;;;11.53;4.57;;;;;;;7.14;56.12;97947.19;8450004;28;20240;-78
2022/01/06 09:28:42;;;;;;;10.47;3.93;;;;;;;6.92;56.80;97954.72;8450003;28;20229;-78
2022/01/06 09:32:45;;;;;;;9.83;3.83;;;;;;;7.00;56.94;97967.34;8447569;28;20237;-79
2022/01/06 09:36:49;;;;;;;14.37;4.43;;;;;;;6.83;57.04;97965.28;8450012;28;20234;-79
2022/01/06 09:40:53;;;;;;;11.87;4.40;;;;;;;7.27;56.30;97969.97;8449654;28;20226;-78
2022/01/06 09:44:58;;;;;;;16.60;5.10;;;;;;;7.22;56.46;97970.97;8449487;28;20230;-79
2022/01/06 09:49:01;;;;;;;9.63;4.13;;;;;;;7.21;56.35;97976.16;8449147;28;20225;-78
2022/01/06 09:53:11;;;;;;;12.97;4.87;;;;;;;7.20;56.50;97977.91;8444585;28;20226;-79
2022/01/06 09:57:16;;;;;;;12.40;4.40;;;;;;;7.69;55.10;97969.50;8449154;28;20225;-78
2022/01/06 10:01:19;;;;;;;10.03;4.17;;;;;;;7.56;55.08;97975.06;8449431;28;20226;-79
2022/01/06 10:05:23;;;;;;;10.10;4.20;;;;;;;7.44;56.24;97972.88;8449586;28;20294;-79
2022/01/06 10:09:26;;;;;;;11.50;3.87;;;;;;;7.80;54.36;97968.25;8449807;28;20236;-79
2022/01/06 10:13:32;;;;;;;9.40;3.23;;;;;;;7.55;54.40;97980.28;8449696;28;20229;-79
2022/01/06 10:17:35;;;;;;;12.70;3.60;;;;;;;7.50;54.56;97992.44;8449113;28;20229;-79
2022/01/06 10:21:40;;;;;;;9.33;3.43;;;;;;;7.66;53.53;97979.94;8449039;28;20229;-79
2022/01/06 10:25:49;;;;;;;8.10;2.60;;;;;;;7.51;53.28;97987.25;8448756;28;20427;-78
2022/01/06 10:29:58;;;;;;;7.33;2.73;;;;;;;7.75;53.07;97988.22;8448157;28;20234;-78
2022/01/06 10:34:08;;;;;;;8.03;3.37;;;;;;;8.01;52.78;97997.66;8448494;28;20230;-79
2022/01/06 10:38:11;;;;;;;8.73;3.20;;;;;;;8.26;51.93;97998.56;8448696;28;20233;-79
2022/01/06 10:42:14;;;;;;;9.97;3.40;;;;;;;8.53;50.68;98005.38;8448620;28;20238;-79
2022/01/06 10:46:29;;;;;;;9.47;3.50;;;;;;;8.54;50.57;97999.31;8448497;28;20234;-78
2022/01/06 10:50:34;;;;;;;12.13;3.87;;;;;;;8.23;52.20;98000.34;8447698;28;20229;-78
2022/01/06 10:54:38;;;;;;;9.63;3.57;;;;;;;8.70;51.14;98009.06;8448204;28;20238;-79
2022/01/06 10:58:45;;;;;;;10.07;3.57;;;;;;;8.22;51.86;98019.31;8447939;28;20476;-79
2022/01/06 11:03:04;;;;;;;8.70;3.27;;;;;;;8.16;52.09;98013.50;8448063;28;20375;-78
2022/01/06 11:07:08;;;;;;;8.20;3.30;;;;;;;8.15;52.32;98011.84;8447696;28;20230;-78
2022/01/06 11:11:30;;;;;;;8.27;3.40;;;;;;;8.03;52.05;98016.50;8447512;28;20248;-79
2022/01/06 11:15:33;;;;;;;8.40;3.87;;;;;;;7.67;52.30;98025.44;8446400;28;20222;-79
2022/01/06 11:19:37;;;;;;;12.37;6.20;;;;;;;8.09;51.38;98022.34;8446027;28;20230;-79
2022/01/06 11:23:41;;;;;;;8.53;4.50;;;;;;;7.92;50.79;98028.91;8446328;28;20226;-79
2022/01/06 11:27:45;;;;;;;16.47;6.43;;;;;;;7.97;50.09;98031.34;8446125;28;20226;-79
2022/01/06 11:31:49;;;;;;;17.30;8.70;;;;;;;8.54;49.62;98025.13;8446388;28;20548;-78
2022/01/06 11:35:55;;;;;;;7.87;2.60;;;;;;;8.62;48.69;98032.59;8446886;28;20230;-78
2022/01/06 11:40:02;;;;;;;7.47;2.27;;;;;;;8.97;47.97;98031.34;8447028;28;20418;-79
2022/01/06 11:44:17;;;;;;;8.60;2.40;;;;;;;9.62;47.51;98035.81;8455206;28;20229;-78
2022/01/06 11:48:19;;;;;;;5.80;2.53;;;;;;;9.54;47.40;98030.94;8457975;28;20229;-78
2022/01/06 11:52:24;;;;;;;10.73;3.87;;;;;;;9.36;47.50;98035.06;8458471;28;20233;-78
2022/01/06 11:56:27;;;;;;;10.37;3.10;;;;;;;8.64;49.58;98030.78;8457979;28;20225;-78
2022/01/06 12:00:30;;;;;;;7.90;2.70;;;;;;;8.18;49.32;98042.69;8458170;28;20251;-77
2022/01/06 12:04:34;;;;;;;10.57;3.70;;;;;;;8.63;49.37;98036.88;8465446;28;20225;-78
2022/01/06 12:08:40;;;;;;;7.93;3.23;;;;;;;8.31;48.99;98043.13;8457939;28;20237;-78
2022/01/06 12:12:43;;;;;;;12.10;4.27;;;;;;;7.97;48.73;98045.06;8458144;28;20533;-78
2022/01/06 12:16:46;;;;;;;15.77;5.00;;;;;;;7.74;49.41;98053.53;8457850;28;20237;-78
2022/01/06 12:20:49;;;;;;;15.43;5.53;;;;;;;7.65;49.58;98046.09;8458333;28;20312;-78
2022/01/06 12:25:00;;;;;;;14.00;4.73;;;;;;;7.95;49.03;98048.59;8457814;28;20229;-79
2022/01/06 12:29:05;;;;;;;8.93;3.47;;;;;;;7.96;48.56;98058.88;8459051;28;20226;-78
2022/01/06 12:33:08;;;;;;;10.00;3.70;;;;;;;7.98;48.77;98054.50;8469734;28;20229;-78
2022/01/06 12:37:11;;;;;;;8.97;4.20;;;;;;;7.95;48.59;98048.59;8482129;28;20249;-78
2022/01/06 12:41:17;;;;;;;13.13;4.77;;;;;;;8.04;47.79;98048.31;8491087;28;20225;-78
2022/01/06 12:45:20;;;;;;;7.83;3.17;;;;;;;8.20;47.65;98046.03;8490845;28;20228;-78
2022/01/06 12:49:26;;;;;;;9.10;2.60;;;;;;;8.10;46.64;98045.50;8490718;28;20236;-78
2022/01/06 12:53:30;;;;;;;7.97;2.30;;;;;;;8.50;46.71;98044.19;8488584;28;20229;-78
2022/01/06 12:57:35;;;;;;;6.30;1.87;;;;;;;8.37;46.37;98051.47;8484999;28;20221;-78
2022/01/06 13:01:38;;;;;;;4.17;1.90;;;;;;;8.35;44.80;98061.00;8485280;28;20429;-77
2022/01/06 13:05:41;;;;;;;4.47;1.80;;;;;;;8.70;44.53;98059.00;8485028;28;20237;-78
2022/01/06 13:09:46;;;;;;;4.37;1.70;;;;;;;8.88;44.86;98052.31;8485129;28;20533;-78
2022/01/06 13:13:53;;;;;;;6.23;1.93;;;;;;;8.89;44.84;98053.16;8485239;28;20434;-78
2022/01/06 13:17:56;;;;;;;6.60;1.93;;;;;;;8.74;44.25;98047.66;8484876;28;20415;-78
2022/01/06 13:22:03;;;;;;;7.10;2.97;;;;;;;8.66;45.10;98057.41;8485012;28;20226;-78
2022/01/06 13:26:07;;;;;;;7.23;2.20;;;;;;;8.91;44.88;98052.22;8484793;28;20248;-78
2022/01/06 13:30:12;;;;;;;7.17;2.27;;;;;;;8.92;44.42;98053.06;8484740;28;20233;-78
2022/01/06 13:34:18;;;;;;;6.10;2.20;;;;;;;8.75;44.75;98066.56;8476539;28;20226;-79
2022/01/06 13:38:23;;;;;;;5.13;2.33;;;;;;;8.45;45.24;98069.31;8450287;28;20241;-78
2022/01/06 13:42:28;;;;;;;9.03;2.53;;;;;;;8.59;45.85;98069.69;8450595;28;20251;-78
2022/01/06 13:46:42;;;;;;;5.70;2.10;;;;;;;10.90;60.25;98083.97;8449564;28;20555;-77
2022/01/06 13:55:15;;;;;;;8.53;2.17;;;;;;;11.03;48.22;98083.47;8449720;28;20230;-79
2022/01/06 13:59:18;;;;;;;5.20;1.87;;;;;;;11.13;47.30;98077.78;8449837;28;20237;-79
2022/01/06 14:03:40;;;;;;;4.55;1.90;;;;;;;10.69;42.25;98079.75;8437138;28;20232;-79
2022/01/06 14:07:43;;;;;;;5.97;2.80;;;;;;;9.50;42.05;98089.66;8449247;28;20465;-78
2022/01/06 14:11:46;;;;;;;11.93;4.63;;;;;;;9.26;43.30;98091.41;8449452;28;20242;-78
2022/01/06 14:15:49;;;;;;;10.73;4.77;;;;;;;9.18;43.41;98096.03;8449048;28;20245;-83
2022/01/06 14:19:54;;;;;;;7.27;3.30;;;;;;;9.00;43.97;98097.53;8449202;28;20252;-82
2022/01/06 14:23:57;;;;;;;7.30;2.90;;;;;;;8.91;44.47;98108.19;8449003;28;20555;-72
2022/01/06 14:28:06;;;;;;;9.90;2.90;;;;;;;8.53;45.04;98112.94;8448983;28;20230;-71
2022/01/06 14:32:09;;;;;;;5.07;2.13;;;;;;;8.46;45.55;98114.06;8448860;28;20237;-71
2022/01/06 14:36:14;;;;;;;7.83;3.07;;;;;;;8.36;45.40;98121.22;8448462;28;20230;-71
2022/01/06 14:40:17;;;;;;;5.57;2.50;;;;;;;8.38;46.28;98119.44;8448557;28;20234;-71
2022/01/06 14:44:40;;;;;;;5.43;2.67;;;;;;;8.49;45.39;98122.53;8455036;28;20233;-70
2022/01/06 14:48:44;;;;;;;5.27;2.70;;;;;;;8.80;45.00;98134.41;8448321;28;20234;-70
2022/01/06 14:52:48;;;;;;;6.90;2.80;;;;;;;8.68;44.94;98137.38;8448326;28;20237;-71
2022/01/06 14:56:51;;;;;;;10.70;6.97;;;;;;;8.75;44.69;98136.28;8448275;28;20246;-70
2022/01/06 15:00:54;;;;;;;22.07;16.33;;;;;;;8.46;44.91;98157.94;8448212;28;20237;-70
2022/01/06 15:04:58;;;;;;;11.40;7.40;;;;;;;8.46;44.84;98160.50;8447670;28;20300;-71
2022/01/06 15:09:02;;;;;;;12.90;7.80;;;;;;;8.32;46.22;98160.91;8447932;28;20226;-71
2022/01/06 15:13:05;;;;;;;8.83;6.03;;;;;;;8.21;46.32;98158.69;8447673;28;20521;-71
2022/01/06 15:17:08;;;;;;;11.50;6.53;;;;;;;8.13;47.23;98174.41;8470027;28;20240;-73
2022/01/06 15:21:11;;;;;;;10.10;6.23;;;;;;;7.95;47.20;98180.94;8481353;28;20225;-73
2022/01/06 15:25:15;;;;;;;11.60;5.90;;;;;;;7.81;47.32;98175.38;8480913;28;20233;-73
2022/01/06 15:29:19;;;;;;;10.17;6.13;;;;;;;7.89;47.65;98181.16;8480586;28;20536;-74
2022/01/06 15:33:22;;;;;;;12.17;8.13;;;;;;;7.81;48.27;98183.94;8479841;28;20225;-73
2022/01/06 15:37:25;;;;;;;12.80;8.03;;;;;;;7.59;48.31;98191.47;8480462;28;20229;-68
2022/01/06 15:41:29;;;;;;;11.70;7.37;;;;;;;7.61;49.08;98188.84;8480296;28;20221;-68
2022/01/06 15:45:32;;;;;;;14.97;7.83;;;;;;;7.53;49.01;98191.63;8479942;28;20555;-68
2022/01/06 15:49:39;;;;;;;10.97;6.40;;;;;;;7.37;49.19;98198.97;8480570;28;20243;-68
2022/01/06 15:53:42;;;;;;;14.97;7.80;;;;;;;7.36;49.13;98205.00;8462165;28;20233;-68
2022/01/06 15:57:46;;;;;;;13.90;6.87;;;;;;;7.33;49.73;98209.38;8462750;28;20230;-68
2022/01/06 16:06:09;;;;;;;10.43;7.10;;;;;;;7.13;49.17;98223.66;8422173;28;20225;-68
2022/01/06 16:10:13;;;;;;;12.90;7.60;;;;;;;7.00;50.21;98222.28;8462388;28;20413;-68
2022/01/06 16:14:17;;;;;;;18.33;10.27;;;;;;;6.85;50.72;98233.81;8462796;28;20222;-68
2022/01/06 16:18:20;;;;;;;18.33;10.47;;;;;;;6.84;50.41;98232.97;8446409;28;20238;-68
2022/01/06 16:22:23;;;;;;;14.07;9.70;;;;;;;6.72;50.38;98228.13;8446691;28;20238;-68
2022/01/06 16:26:27;;;;;;;12.43;8.07;;;;;;;6.66;50.35;98235.97;8446160;28;20567;-68
2022/01/06 16:30:36;;;;;;;13.43;9.30;;;;;;;6.60;50.11;98242.13;8449479;28;20234;-68
2022/01/06 16:34:39;;;;;;;33.57;26.27;;;;;;;6.65;50.56;98249.75;8452335;28;20233;-68
2022/01/06 16:38:42;;;;;;;27.73;19.90;;;;;;;6.65;51.06;98249.75;8452703;28;20299;-68
2022/01/06 16:42:45;;;;;;;23.43;18.33;;;;;;;6.67;51.29;98250.56;8452340;28;20234;-69
2022/01/06 16:46:53;;;;;;;20.10;15.43;;;;;;;6.74;50.80;98252.09;8452101;28;20456;-68
2022/01/06 16:50:56;;;;;;;20.37;13.73;;;;;;;6.55;51.64;98248.25;8452575;28;20250;-68
2022/01/06 16:54:59;;;;;;;17.80;14.47;;;;;;;6.52;52.00;98256.06;8452404;28;20229;-68
2022/01/06 16:59:04;;;;;;;21.10;15.70;;;;;;;6.52;51.64;98244.03;8452370;28;20283;-68
2022/01/06 17:03:09;;;;;;;16.90;11.73;;;;;;;6.40;51.38;98249.50;8469388;28;20225;-68
2022/01/06 17:07:12;;;;;;;18.37;10.63;;;;;;;6.37;51.34;98252.13;8485291;28;20439;-69
2022/01/06 17:11:15;;;;;;;13.80;7.63;;;;;;;6.39;51.23;98250.34;8476382;28;20226;-68
2022/01/06 17:15:18;;;;;;;13.53;7.17;;;;;;;6.32;51.17;98254.81;8451057;28;20552;-68
2022/01/06 17:19:22;;;;;;;11.13;7.20;;;;;;;6.35;51.05;98257.28;8451104;28;20225;-68
2022/01/06 17:23:25;;;;;;;16.30;8.50;;;;;;;6.16;51.12;98258.59;8451035;28;20435;-68
2022/01/06 17:27:28;;;;;;;17.40;11.23;;;;;;;6.09;51.72;98257.84;8450764;28;20234;-68
2022/01/06 17:31:31;;;;;;;21.97;17.10;;;;;;;6.11;51.35;98255.25;8450918;28;20397;-68
2022/01/06 17:35:36;;;;;;;22.27;17.07;;;;;;;6.05;51.57;98257.09;8450858;28;20505;-68
2022/01/06 17:39:39;;;;;;;24.13;18.07;;;;;;;6.01;52.39;98257.19;8450087;28;20230;-68
2022/01/06 17:43:43;;;;;;;21.97;17.03;;;;;;;5.98;52.48;98255.53;8450613;28;20237;-68
2022/01/06 17:47:46;;;;;;;24.97;15.57;;;;;;;6.01;52.15;98258.03;8450482;28;20529;-68
2022/01/06 17:51:51;;;;;;;19.73;14.07;;;;;;;6.00;51.85;98261.50;8450311;28;20537;-68
2022/01/06 17:55:54;;;;;;;17.27;13.57;;;;;;;6.04;52.08;98267.41;8451151;28;20241;-68
2022/01/06 17:59:57;;;;;;;17.63;12.67;;;;;;;5.88;52.31;98265.13;8474025;28;20240;-68
2022/01/06 18:04:01;;;;;;;14.73;9.23;;;;;;;5.83;52.69;98266.94;8483635;28;20539;-68
2022/01/06 18:08:25;;;;;;;14.50;9.27;;;;;;;5.80;52.18;98271.31;8483069;28;20430;-68
2022/01/06 18:12:28;;;;;;;16.27;10.07;;;;;;;5.75;52.75;98283.38;8473658;28;20295;-67
2022/01/06 18:16:32;;;;;;;17.10;11.23;;;;;;;5.73;52.31;98283.44;8449121;28;20233;-67
2022/01/06 18:20:35;;;;;;;24.10;16.87;;;;;;;5.70;52.51;98287.78;8480062;28;20221;-67
2022/01/06 18:24:39;;;;;;;21.80;14.43;;;;;;;5.64;52.50;98292.16;8471441;28;20234;-67
2022/01/06 18:28:42;;;;;;;21.43;14.07;;;;;;;5.61;52.51;98299.09;8476984;28;20237;-68
2022/01/06 18:32:45;;;;;;;31.70;17.40;;;;;;;5.59;52.83;98301.69;8482292;28;20229;-68
2022/01/06 18:36:48;;;;;;;24.73;16.83;;;;;;;5.65;52.50;98299.00;8482334;28;20237;-68
2022/01/06 18:40:52;;;;;;;23.70;14.67;;;;;;;5.61;52.85;98302.50;8481872;28;20237;-68
2022/01/06 18:44:55;;;;;;;96.57;48.17;;;;;;;8.51;82.74;98297.97;8460631;28;20229;-69
2022/01/06 18:48:58;;;;;;;22.90;15.23;;;;;;;7.35;52.38;98293.50;8448211;28;20233;-68
2022/01/06 18:53:02;;;;;;;25.33;14.97;;;;;;;6.65;51.98;98298.66;8447106;28;20233;-67
2022/01/06 18:57:06;;;;;;;17.23;11.30;;;;;;;6.36;51.85;98299.28;8447711;28;20244;-68
2022/01/06 19:01:10;;;;;;;18.60;11.20;;;;;;;6.20;52.08;98297.06;8448687;28;20564;-68
2022/01/06 19:05:13;;;;;;;15.50;10.80;;;;;;;5.95;52.17;98304.44;8481112;28;20252;-68
2022/01/06 19:09:17;;;;;;;15.93;10.47;;;;;;;5.82;52.15;98303.78;8481377;28;20230;-68
2022/01/06 19:13:25;;;;;;;15.80;10.57;;;;;;;5.78;52.58;98296.19;8481227;28;20233;-68
2022/01/06 19:17:28;;;;;;;18.07;11.93;;;;;;;5.67;52.79;98298.97;8481359;28;20629;-68
2022/01/06 19:21:31;;;;;;;16.53;11.97;;;;;;;5.54;52.60;98295.78;8479788;28;20222;-68
2022/01/06 19:25:34;;;;;;;20.90;13.67;;;;;;;5.63;53.03;98297.34;8460742;28;20234;-67
2022/01/06 19:29:39;;;;;;;20.73;12.87;;;;;;;5.63;52.46;98294.75;8480846;28;20504;-68